Oakland, California
Current Conditions -  °F | °C
As of 10:53 AM on Thursday 23 Oct 2014 (Local Time) from KOAK Reporting Station
Broken Clouds Broken Clouds  
Wind Chill: 65°   Ceiling: 15000
Heat Index: 65°   Visibility: 10mi
Dew Point: 59°   Wind: 6mph
Humidity: 81%   Direction: 170°S
Pressure: 30.08"   Gusts: NA
Location:  37.81°N, 122.27°W
Report Text: KOAK 231753Z 17005KT 10SM FEW010 BKN150 BKN180 18/15 A3008 RMK AO2 SLP186 T01830150 10183 20133 51010 $
Loading
Personal Weather Stations






























Interactive Weather Map
Tropical Storm Tracking
New forecast layout! Learn more

10-Day Weather Forecast

Advertisements
Track Severe Weather on mobile